WetterOnline ( https://www.wetteronline.de )

Wetter aktuell Reimersgrün

Aktuelles Wetter: Plauen (389m)

6-stündlich | Neueste Meldungen
Ortszeit Temperatur Wetter
Sa, 15.06. 8:00 13.7° C leichter Regen
Sa, 15.06. 2:00 14.1° C bewölkt
Fr, 14.06. 20:00 16.5° C bewölkt
Fr, 14.06. 14:00 15.0° C bedeckt
Fr, 14.06. 8:00 12.4° C bedeckt
Fr, 14.06. 2:00 5.7° C wolkig
Do, 13.06. 20:00 16.3° C leicht bewölkt
Do, 13.06. 14:00 15.9° C wolkig
Ortszeit Temperatur Wetter
Sa, 15.06. 8:00 13.7° C leichter Regen
Sa, 15.06. 7:50 13.7° C leichter Regen
Sa, 15.06. 7:40 14.2° C Regen
Sa, 15.06. 7:30 14.5° C bedeckt
Sa, 15.06. 7:20 14.5° C bedeckt
Sa, 15.06. 7:10 14.3° C bedeckt
Sa, 15.06. 7:00 14.3° C bewölkt
Sa, 15.06. 6:30 14.1° C wolkig
Sa, 15.06. 6:00 14.0° C bedeckt
Sa, 15.06. 5:30 13.8° C wolkig
Sa, 15.06. 5:00 14.0° C wolkig
Ortszeit Relative Feuchte Sichtweite
Sa, 15.06. 8:00 86% 13 km
Sa, 15.06. 2:00 79% 60 km
Fr, 14.06. 20:00 66% >70 km
Fr, 14.06. 14:00 66% >70 km
Fr, 14.06. 8:00 68% >70 km
Fr, 14.06. 2:00 92% 40 km
Do, 13.06. 20:00 44% 40 km
Do, 13.06. 14:00 43% >70 km
Ortszeit Relative Feuchte Sichtweite
Sa, 15.06. 8:00 86% 13 km
Sa, 15.06. 7:50 86% -
Sa, 15.06. 7:40 82% -
Sa, 15.06. 7:30 75% >70 km
Sa, 15.06. 7:20 75% -
Sa, 15.06. 7:10 76% -
Sa, 15.06. 7:00 75% 60 km
Sa, 15.06. 6:30 76% 65 km
Sa, 15.06. 6:00 77% 60 km
Sa, 15.06. 5:30 78% 60 km
Sa, 15.06. 5:00 76% 55 km
Ortszeit Niederschlagsmenge Niederschlagsart
Sa, 15.06. 8:00 0.4 l/m2 in 12 Std. Regen
Sa, 15.06. 2:00 0.1 l/m2 in 6 Std. Regen
Fr, 14.06. 20:00 0.1 l/m2 in 12 Std. Sprühregen
Fr, 14.06. 14:00 0.1 l/m2 in 6 Std. Regen
Fr, 14.06. 8:00 0.0 l/m2 in 12 Std. -
Fr, 14.06. 2:00 0.0 l/m2 in 6 Std. -
Do, 13.06. 20:00 0.1 l/m2 in 12 Std. -
Do, 13.06. 14:00 0.1 l/m2 in 6 Std. Regen
Ortszeit Niederschlagsmenge Niederschlagsart
Sa, 15.06. 8:00 0.4 l/m2 in 1 Std. Regen
Sa, 15.06. 7:50 keine Meldung -
Sa, 15.06. 7:40 keine Meldung -
Sa, 15.06. 7:30 0.0 l/m2 in 30 Min -
Sa, 15.06. 7:20 keine Meldung -
Sa, 15.06. 7:10 keine Meldung -
Sa, 15.06. 7:00 0.0 l/m2 in 1 Std. -
Sa, 15.06. 6:30 0.0 l/m2 in 30 Min -
Sa, 15.06. 6:00 0.0 l/m2 in 1 Std. -
Sa, 15.06. 5:30 0.0 l/m2 in 30 Min -
Sa, 15.06. 5:00 0.0 l/m2 in 1 Std. -
Ortszeit Stärke Spitze Richtung
km/h Bft. km/h Grad Sektor
Sa, 15.06. 8:00 7 2 35 210° SW
Sa, 15.06. 2:00 15 3 30 170° S
Fr, 14.06. 20:00 7 2 36 200° S
Fr, 14.06. 14:00 17 3 43 180° S
Fr, 14.06. 8:00 13 3 31 170° S
Fr, 14.06. 2:00 4 1 11 210° SW
Do, 13.06. 20:00 4 1 25 80° O
Do, 13.06. 14:00 11 2 32 310° NW
Ortszeit Stärke Spitze Richtung
km/h Bft. km/h Grad Sektor
Sa, 15.06. 8:00 7 2 28 210° SW
Sa, 15.06. 7:50 7 2 - 210° SW
Sa, 15.06. 7:40 7 2 - 170° S
Sa, 15.06. 7:30 11 2 28 170° S
Sa, 15.06. 7:20 11 2 - 170° S
Sa, 15.06. 7:10 11 2 - 160° S
Sa, 15.06. 7:00 18 3 32 170° S
Sa, 15.06. 6:30 13 3 28 170° S
Sa, 15.06. 6:00 14 3 32 160° S
Sa, 15.06. 5:30 11 2 31 160° S
Sa, 15.06. 5:00 13 3 35 160° S
Ortszeit Untergrenze Bedeckung Gattung
total tief tief mittel hoch
Sa, 15.06. 8:00 720 m 8/8 8/8 - - -
Sa, 15.06. 2:00 3000 m 7/8 7/8 - - -
Fr, 14.06. 20:00 960 m 7/8 7/8 - - -
Fr, 14.06. 14:00 900 m 8/8 8/8 - - -
Fr, 14.06. 8:00 3600 m 8/8 8/8 - - -
Fr, 14.06. 2:00 6900 m 8/8 2/8 - - -
Do, 13.06. 20:00 7800 m 5/8 0/8 - - -
Do, 13.06. 14:00 2700 m 5/8 5/8 - - -
Ortszeit Bedeckungsgrad in Achtel und Wolkenuntergrenze
Sa, 15.06. 8:00 3(720m) 5(1080m) 8(1290m)
Sa, 15.06. 7:50 3(720m) 5(1080m) 8(1290m)
Sa, 15.06. 7:40 8
Sa, 15.06. 7:30 5(1380m) 7(1800m) 8(2400m)
Sa, 15.06. 7:20 5(1380m) 7(1800m) 8(2400m)
Sa, 15.06. 7:10 8
Sa, 15.06. 7:00 6(1500m) 7(2400m) 8(6900m)
Sa, 15.06. 6:30 2(1800m) 8(5400m) 8(6300m)
Sa, 15.06. 6:00 2(5400m) 8(6000m) 8(7200m)
Sa, 15.06. 5:30 1(3300m) 8(8100m) 8(9000m)
Sa, 15.06. 5:00 3(1500m) 8(7500m)
Ortszeit Luftdruck NN (hPa) Tendenz (hPa in 3 Std.)
Sa, 15.06. 8:00 1007 + 0,7
Sa, 15.06. 2:00 1009 - 2,1
Fr, 14.06. 20:00 1011 - 0,4
Fr, 14.06. 14:00 1013 - 0,3
Fr, 14.06. 8:00 1014 - 0,7
Fr, 14.06. 2:00 1017 - 0,6
Do, 13.06. 20:00 1016 - 0,4
Do, 13.06. 14:00 1017 - 0,5
Ortszeit Luftdruck NN (hPa) Tendenz (hPa in 3 Std.)
Sa, 15.06. 8:00 1007 + 0,7
Sa, 15.06. 7:50 1007 keine Meldung
Sa, 15.06. 7:40 1007 keine Meldung
Sa, 15.06. 7:30 1006 - 0,5
Sa, 15.06. 7:20 1006 keine Meldung
Sa, 15.06. 7:10 1006 keine Meldung
Sa, 15.06. 7:00 1006 - 1,1
Sa, 15.06. 6:30 1006 - 1,6
Sa, 15.06. 6:00 1006 - 2,0
Sa, 15.06. 5:30 1007 - 1,9
Sa, 15.06. 5:00 1007 - 2,2
Ortszeit Schneehöhe (cm)
Sa, 15.06. 8:00 0
Sa, 15.06. 2:00 0
Fr, 14.06. 20:00 0
Fr, 14.06. 14:00 0
Fr, 14.06. 8:00 0
Fr, 14.06. 2:00 0
Do, 13.06. 20:00 0
Do, 13.06. 14:00 0
Ortszeit Schneehöhe (cm)
Sa, 15.06. 8:00 0
Sa, 15.06. 7:50 0
Sa, 15.06. 7:40 -
Sa, 15.06. 7:30 0
Sa, 15.06. 7:20 0
Sa, 15.06. 7:10 -
Sa, 15.06. 7:00 0
Sa, 15.06. 6:30 0
Sa, 15.06. 6:00 0
Sa, 15.06. 5:30 0
Sa, 15.06. 5:00 0
Link zu dieser Seite / Seite empfehlen

Das Wetter in ...